sensor_id;sensor_type;location;lat;lon;timestamp;temperature;humidity
27567;DHT22;15006;48.584;9.186;2023-07-30T00:02:07;15.40;99.90
27567;DHT22;15006;48.584;9.186;2023-07-30T00:04:33;15.40;99.90
27567;DHT22;15006;48.584;9.186;2023-07-30T00:06:59;15.30;99.90
27567;DHT22;15006;48.584;9.186;2023-07-30T00:09:25;15.30;99.90
27567;DHT22;15006;48.584;9.186;2023-07-30T00:11:51;15.20;99.90
27567;DHT22;15006;48.584;9.186;2023-07-30T00:14:17;15.10;99.90
27567;DHT22;15006;48.584;9.186;2023-07-30T00:16:44;15.00;99.90
27567;DHT22;15006;48.584;9.186;2023-07-30T00:19:10;15.00;99.90
27567;DHT22;15006;48.584;9.186;2023-07-30T00:21:37;15.00;99.90
27567;DHT22;15006;48.584;9.186;2023-07-30T00:24:03;15.00;99.90
27567;DHT22;15006;48.584;9.186;2023-07-30T00:26:30;15.00;99.90
27567;DHT22;15006;48.584;9.186;2023-07-30T00:28:56;15.00;99.90
27567;DHT22;15006;48.584;9.186;2023-07-30T00:31:22;15.00;99.90
27567;DHT22;15006;48.584;9.186;2023-07-30T00:33:48;15.10;99.90
27567;DHT22;15006;48.584;9.186;2023-07-30T00:36:14;15.10;99.90
27567;DHT22;15006;48.584;9.186;2023-07-30T00:38:40;15.10;99.90
27567;DHT22;15006;48.584;9.186;2023-07-30T00:41:06;15.10;99.90
27567;DHT22;15006;48.584;9.186;2023-07-30T00:43:32;15.10;99.90
27567;DHT22;15006;48.584;9.186;2023-07-30T00:45:58;15.20;99.90
27567;DHT22;15006;48.584;9.186;2023-07-30T00:48:24;15.20;99.90
27567;DHT22;15006;48.584;9.186;2023-07-30T00:50:50;15.20;99.90
27567;DHT22;15006;48.584;9.186;2023-07-30T00:53:16;15.20;99.90
27567;DHT22;15006;48.584;9.186;2023-07-30T00:55:44;15.20;99.90
27567;DHT22;15006;48.584;9.186;2023-07-30T00:58:10;15.20;99.90
27567;DHT22;15006;48.584;9.186;2023-07-30T01:00:37;15.20;99.90
27567;DHT22;15006;48.584;9.186;2023-07-30T01:03:03;15.20;99.90
27567;DHT22;15006;48.584;9.186;2023-07-30T01:05:30;15.20;99.90
27567;DHT22;15006;48.584;9.186;2023-07-30T01:07:57;15.20;99.90
27567;DHT22;15006;48.584;9.186;2023-07-30T01:10:23;15.20;99.90
27567;DHT22;15006;48.584;9.186;2023-07-30T01:12:50;15.20;99.90
27567;DHT22;15006;48.584;9.186;2023-07-30T01:15:17;15.20;99.90
27567;DHT22;15006;48.584;9.186;2023-07-30T01:17:44;15.20;99.90
27567;DHT22;15006;48.584;9.186;2023-07-30T01:20:11;15.20;99.90
27567;DHT22;15006;48.584;9.186;2023-07-30T01:22:37;15.10;99.90
27567;DHT22;15006;48.584;9.186;2023-07-30T01:25:04;15.10;99.90
27567;DHT22;15006;48.584;9.186;2023-07-30T01:27:33;15.10;99.90
27567;DHT22;15006;48.584;9.186;2023-07-30T01:30:18;15.10;99.90
27567;DHT22;15006;48.584;9.186;2023-07-30T01:32:49;15.10;99.90
27567;DHT22;15006;48.584;9.186;2023-07-30T01:35:18;15.10;99.90
27567;DHT22;15006;48.584;9.186;2023-07-30T01:37:46;15.10;99.90
27567;DHT22;15006;48.584;9.186;2023-07-30T01:40:13;15.10;99.90
27567;DHT22;15006;48.584;9.186;2023-07-30T01:42:39;15.10;99.90
27567;DHT22;15006;48.584;9.186;2023-07-30T01:45:06;15.00;99.90
27567;DHT22;15006;48.584;9.186;2023-07-30T01:47:32;15.00;99.90
27567;DHT22;15006;48.584;9.186;2023-07-30T01:49:58;15.00;99.90
27567;DHT22;15006;48.584;9.186;2023-07-30T01:52:25;15.00;99.90
27567;DHT22;15006;48.584;9.186;2023-07-30T01:54:51;15.00;99.90
27567;DHT22;15006;48.584;9.186;2023-07-30T01:57:17;15.00;99.90
27567;DHT22;15006;48.584;9.186;2023-07-30T01:59:43;14.90;99.90
27567;DHT22;15006;48.584;9.186;2023-07-30T02:02:09;14.90;99.90
27567;DHT22;15006;48.584;9.186;2023-07-30T02:04:35;14.80;99.90
27567;DHT22;15006;48.584;9.186;2023-07-30T02:07:01;14.80;99.90
27567;DHT22;15006;48.584;9.186;2023-07-30T02:09:27;14.80;99.90
27567;DHT22;15006;48.584;9.186;2023-07-30T02:11:53;14.70;99.90
27567;DHT22;15006;48.584;9.186;2023-07-30T02:14:19;14.60;99.90
27567;DHT22;15006;48.584;9.186;2023-07-30T02:16:45;14.60;99.90
27567;DHT22;15006;48.584;9.186;2023-07-30T02:19:11;14.50;99.90
27567;DHT22;15006;48.584;9.186;2023-07-30T02:21:37;14.40;99.90
27567;DHT22;15006;48.584;9.186;2023-07-30T02:24:11;14.30;99.90
27567;DHT22;15006;48.584;9.186;2023-07-30T02:26:38;14.30;99.90
27567;DHT22;15006;48.584;9.186;2023-07-30T02:29:04;14.20;99.90
27567;DHT22;15006;48.584;9.186;2023-07-30T02:31:30;14.10;99.90
27567;DHT22;15006;48.584;9.186;2023-07-30T02:33:56;14.00;99.90
27567;DHT22;15006;48.584;9.186;2023-07-30T02:36:23;13.90;99.90
27567;DHT22;15006;48.584;9.186;2023-07-30T02:38:49;13.90;99.90
27567;DHT22;15006;48.584;9.186;2023-07-30T02:41:16;13.80;99.90
27567;DHT22;15006;48.584;9.186;2023-07-30T02:43:42;13.70;99.90
27567;DHT22;15006;48.584;9.186;2023-07-30T02:46:08;13.70;99.90
27567;DHT22;15006;48.584;9.186;2023-07-30T02:48:34;13.70;99.90
27567;DHT22;15006;48.584;9.186;2023-07-30T02:51:00;13.60;99.90
27567;DHT22;15006;48.584;9.186;2023-07-30T02:53:26;13.60;99.90
27567;DHT22;15006;48.584;9.186;2023-07-30T02:55:53;13.60;99.90
27567;DHT22;15006;48.584;9.186;2023-07-30T02:58:19;13.60;99.90
27567;DHT22;15006;48.584;9.186;2023-07-30T03:00:45;13.60;99.90
27567;DHT22;15006;48.584;9.186;2023-07-30T03:03:11;13.50;99.90
27567;DHT22;15006;48.584;9.186;2023-07-30T03:05:37;13.60;99.90
27567;DHT22;15006;48.584;9.186;2023-07-30T03:08:03;13.60;99.90
27567;DHT22;15006;48.584;9.186;2023-07-30T03:10:29;13.50;99.90
27567;DHT22;15006;48.584;9.186;2023-07-30T03:12:55;13.50;99.90
27567;DHT22;15006;48.584;9.186;2023-07-30T03:15:21;13.50;99.90
27567;DHT22;15006;48.584;9.186;2023-07-30T03:17:47;13.40;99.90
27567;DHT22;15006;48.584;9.186;2023-07-30T03:20:13;13.40;99.90
27567;DHT22;15006;48.584;9.186;2023-07-30T03:22:39;13.40;99.90
27567;DHT22;15006;48.584;9.186;2023-07-30T03:25:05;13.40;99.90
27567;DHT22;15006;48.584;9.186;2023-07-30T03:27:31;13.40;99.90
27567;DHT22;15006;48.584;9.186;2023-07-30T03:29:57;13.40;99.90
27567;DHT22;15006;48.584;9.186;2023-07-30T03:32:23;13.40;99.90
27567;DHT22;15006;48.584;9.186;2023-07-30T03:34:49;13.40;99.90
27567;DHT22;15006;48.584;9.186;2023-07-30T03:37:15;13.50;99.90
27567;DHT22;15006;48.584;9.186;2023-07-30T03:39:41;13.50;99.90
27567;DHT22;15006;48.584;9.186;2023-07-30T03:42:07;13.50;99.90
27567;DHT22;15006;48.584;9.186;2023-07-30T03:44:33;13.50;99.90
27567;DHT22;15006;48.584;9.186;2023-07-30T03:46:59;13.50;99.90
27567;DHT22;15006;48.584;9.186;2023-07-30T03:49:25;13.60;99.90
27567;DHT22;15006;48.584;9.186;2023-07-30T03:51:51;13.60;99.90
27567;DHT22;15006;48.584;9.186;2023-07-30T03:54:17;13.60;99.90
27567;DHT22;15006;48.584;9.186;2023-07-30T03:56:43;13.60;99.90
27567;DHT22;15006;48.584;9.186;2023-07-30T03:59:09;13.70;99.90
27567;DHT22;15006;48.584;9.186;2023-07-30T04:01:35;13.70;99.90
27567;DHT22;15006;48.584;9.186;2023-07-30T04:04:01;13.70;99.90
27567;DHT22;15006;48.584;9.186;2023-07-30T04:06:28;13.70;99.90
27567;DHT22;15006;48.584;9.186;2023-07-30T04:08:54;13.80;99.90
27567;DHT22;15006;48.584;9.186;2023-07-30T04:11:20;13.80;99.90
27567;DHT22;15006;48.584;9.186;2023-07-30T04:13:46;13.80;99.90
27567;DHT22;15006;48.584;9.186;2023-07-30T04:16:11;13.80;99.90
27567;DHT22;15006;48.584;9.186;2023-07-30T04:18:38;13.90;99.90
27567;DHT22;15006;48.584;9.186;2023-07-30T04:21:04;13.90;99.90
27567;DHT22;15006;48.584;9.186;2023-07-30T04:23:30;14.00;99.90
27567;DHT22;15006;48.584;9.186;2023-07-30T04:25:57;14.00;99.90
27567;DHT22;15006;48.584;9.186;2023-07-30T04:28:23;14.00;99.90
27567;DHT22;15006;48.584;9.186;2023-07-30T04:30:50;14.00;99.90
27567;DHT22;15006;48.584;9.186;2023-07-30T04:33:16;14.10;99.90
27567;DHT22;15006;48.584;9.186;2023-07-30T04:35:43;14.10;99.90
27567;DHT22;15006;48.584;9.186;2023-07-30T04:38:09;14.20;99.90
27567;DHT22;15006;48.584;9.186;2023-07-30T04:40:35;14.20;99.90
27567;DHT22;15006;48.584;9.186;2023-07-30T04:43:01;14.20;99.90
27567;DHT22;15006;48.584;9.186;2023-07-30T04:45:27;14.30;99.90
27567;DHT22;15006;48.584;9.186;2023-07-30T04:47:53;14.30;99.90
27567;DHT22;15006;48.584;9.186;2023-07-30T04:50:20;14.30;99.90
27567;DHT22;15006;48.584;9.186;2023-07-30T04:52:46;14.30;99.90
27567;DHT22;15006;48.584;9.186;2023-07-30T04:55:12;14.30;99.90
27567;DHT22;15006;48.584;9.186;2023-07-30T04:57:38;14.40;99.90
27567;DHT22;15006;48.584;9.186;2023-07-30T05:00:04;14.40;99.90
27567;DHT22;15006;48.584;9.186;2023-07-30T05:02:32;14.50;99.90
27567;DHT22;15006;48.584;9.186;2023-07-30T05:04:58;14.50;99.90
27567;DHT22;15006;48.584;9.186;2023-07-30T05:07:23;14.60;99.90
27567;DHT22;15006;48.584;9.186;2023-07-30T05:09:49;14.60;99.90
27567;DHT22;15006;48.584;9.186;2023-07-30T05:12:15;14.60;99.90
27567;DHT22;15006;48.584;9.186;2023-07-30T05:14:41;14.70;99.90
27567;DHT22;15006;48.584;9.186;2023-07-30T05:17:07;14.70;99.90
27567;DHT22;15006;48.584;9.186;2023-07-30T05:19:33;14.80;99.90
27567;DHT22;15006;48.584;9.186;2023-07-30T05:21:59;14.80;99.90
27567;DHT22;15006;48.584;9.186;2023-07-30T05:24:28;14.90;99.90
27567;DHT22;15006;48.584;9.186;2023-07-30T05:26:54;14.90;99.90
27567;DHT22;15006;48.584;9.186;2023-07-30T05:29:20;15.00;99.90
27567;DHT22;15006;48.584;9.186;2023-07-30T05:31:46;15.10;99.90
27567;DHT22;15006;48.584;9.186;2023-07-30T05:34:12;15.10;99.90
27567;DHT22;15006;48.584;9.186;2023-07-30T05:36:38;15.20;99.90
27567;DHT22;15006;48.584;9.186;2023-07-30T05:39:04;15.30;99.90
27567;DHT22;15006;48.584;9.186;2023-07-30T05:41:30;15.30;99.90
27567;DHT22;15006;48.584;9.186;2023-07-30T05:43:55;15.30;99.90
27567;DHT22;15006;48.584;9.186;2023-07-30T05:46:21;15.30;99.90
27567;DHT22;15006;48.584;9.186;2023-07-30T05:48:47;15.40;99.90
27567;DHT22;15006;48.584;9.186;2023-07-30T05:51:13;15.40;99.90
27567;DHT22;15006;48.584;9.186;2023-07-30T05:53:40;15.40;99.90
27567;DHT22;15006;48.584;9.186;2023-07-30T05:56:06;15.40;99.90
27567;DHT22;15006;48.584;9.186;2023-07-30T05:58:31;15.40;99.90
27567;DHT22;15006;48.584;9.186;2023-07-30T06:00:58;15.40;99.90
27567;DHT22;15006;48.584;9.186;2023-07-30T06:03:24;15.40;99.90
27567;DHT22;15006;48.584;9.186;2023-07-30T06:05:49;15.40;99.90
27567;DHT22;15006;48.584;9.186;2023-07-30T06:08:16;15.40;99.90
27567;DHT22;15006;48.584;9.186;2023-07-30T06:10:42;15.40;99.90
27567;DHT22;15006;48.584;9.186;2023-07-30T06:13:08;15.40;99.90
27567;DHT22;15006;48.584;9.186;2023-07-30T06:15:34;15.40;99.90
27567;DHT22;15006;48.584;9.186;2023-07-30T06:18:03;15.50;99.90
27567;DHT22;15006;48.584;9.186;2023-07-30T06:20:29;15.50;99.90
27567;DHT22;15006;48.584;9.186;2023-07-30T06:22:56;15.50;99.90
27567;DHT22;15006;48.584;9.186;2023-07-30T06:25:21;15.50;99.90
27567;DHT22;15006;48.584;9.186;2023-07-30T06:27:47;15.50;99.90
27567;DHT22;15006;48.584;9.186;2023-07-30T06:30:13;15.50;99.90
27567;DHT22;15006;48.584;9.186;2023-07-30T06:32:39;15.50;99.90
27567;DHT22;15006;48.584;9.186;2023-07-30T06:35:06;15.50;99.90
27567;DHT22;15006;48.584;9.186;2023-07-30T06:37:32;15.60;99.90
27567;DHT22;15006;48.584;9.186;2023-07-30T06:39:58;15.60;99.90
27567;DHT22;15006;48.584;9.186;2023-07-30T06:42:24;15.70;99.90
27567;DHT22;15006;48.584;9.186;2023-07-30T06:44:50;15.70;99.90
27567;DHT22;15006;48.584;9.186;2023-07-30T06:47:16;15.70;99.90
27567;DHT22;15006;48.584;9.186;2023-07-30T06:49:43;15.70;99.90
27567;DHT22;15006;48.584;9.186;2023-07-30T06:52:09;15.70;99.90
27567;DHT22;15006;48.584;9.186;2023-07-30T06:54:35;15.70;99.90
27567;DHT22;15006;48.584;9.186;2023-07-30T06:57:04;15.80;99.90
27567;DHT22;15006;48.584;9.186;2023-07-30T06:59:35;15.80;99.90
27567;DHT22;15006;48.584;9.186;2023-07-30T07:02:01;15.90;99.90
27567;DHT22;15006;48.584;9.186;2023-07-30T07:04:27;16.00;99.90
27567;DHT22;15006;48.584;9.186;2023-07-30T07:06:53;16.10;99.90
27567;DHT22;15006;48.584;9.186;2023-07-30T07:09:19;16.20;99.90
27567;DHT22;15006;48.584;9.186;2023-07-30T07:11:45;16.40;99.90
27567;DHT22;15006;48.584;9.186;2023-07-30T07:14:11;16.50;99.90
27567;DHT22;15006;48.584;9.186;2023-07-30T07:16:37;16.50;99.90
27567;DHT22;15006;48.584;9.186;2023-07-30T07:19:03;16.60;99.90
27567;DHT22;15006;48.584;9.186;2023-07-30T07:21:29;16.70;99.90
27567;DHT22;15006;48.584;9.186;2023-07-30T07:23:55;16.70;99.90
27567;DHT22;15006;48.584;9.186;2023-07-30T07:26:21;16.80;99.90
27567;DHT22;15006;48.584;9.186;2023-07-30T07:28:47;16.70;99.90
27567;DHT22;15006;48.584;9.186;2023-07-30T07:31:13;16.80;99.90
27567;DHT22;15006;48.584;9.186;2023-07-30T07:33:39;16.80;99.90
27567;DHT22;15006;48.584;9.186;2023-07-30T07:36:07;16.70;99.90
27567;DHT22;15006;48.584;9.186;2023-07-30T07:38:34;16.60;99.90
27567;DHT22;15006;48.584;9.186;2023-07-30T07:41:01;16.50;99.90
27567;DHT22;15006;48.584;9.186;2023-07-30T07:43:27;16.30;99.90
27567;DHT22;15006;48.584;9.186;2023-07-30T07:45:53;16.10;99.30
27567;DHT22;15006;48.584;9.186;2023-07-30T07:48:19;15.80;99.80
27567;DHT22;15006;48.584;9.186;2023-07-30T07:50:45;15.60;99.90
27567;DHT22;15006;48.584;9.186;2023-07-30T07:53:11;15.30;99.90
27567;DHT22;15006;48.584;9.186;2023-07-30T07:55:37;15.20;99.90
27567;DHT22;15006;48.584;9.186;2023-07-30T07:58:04;15.10;99.90
27567;DHT22;15006;48.584;9.186;2023-07-30T08:00:30;14.90;99.90
27567;DHT22;15006;48.584;9.186;2023-07-30T08:02:56;14.90;99.90
27567;DHT22;15006;48.584;9.186;2023-07-30T08:05:22;14.90;99.90
27567;DHT22;15006;48.584;9.186;2023-07-30T08:07:50;14.90;99.90
27567;DHT22;15006;48.584;9.186;2023-07-30T08:10:16;14.90;99.90
27567;DHT22;15006;48.584;9.186;2023-07-30T08:12:42;15.00;99.90
27567;DHT22;15006;48.584;9.186;2023-07-30T08:15:08;15.10;99.90
27567;DHT22;15006;48.584;9.186;2023-07-30T08:17:35;15.10;99.90
27567;DHT22;15006;48.584;9.186;2023-07-30T08:20:01;15.20;99.90
27567;DHT22;15006;48.584;9.186;2023-07-30T08:22:27;15.40;99.90
27567;DHT22;15006;48.584;9.186;2023-07-30T08:24:53;15.50;99.90
27567;DHT22;15006;48.584;9.186;2023-07-30T08:27:19;15.80;99.90
27567;DHT22;15006;48.584;9.186;2023-07-30T08:29:45;16.00;99.90
27567;DHT22;15006;48.584;9.186;2023-07-30T08:32:11;16.20;99.90
27567;DHT22;15006;48.584;9.186;2023-07-30T08:34:38;16.50;99.90
27567;DHT22;15006;48.584;9.186;2023-07-30T08:37:04;16.70;99.90
27567;DHT22;15006;48.584;9.186;2023-07-30T08:39:30;17.00;99.90
27567;DHT22;15006;48.584;9.186;2023-07-30T08:41:57;17.20;99.90
27567;DHT22;15006;48.584;9.186;2023-07-30T08:44:23;17.40;99.90
27567;DHT22;15006;48.584;9.186;2023-07-30T08:46:50;17.60;99.90
27567;DHT22;15006;48.584;9.186;2023-07-30T08:49:16;17.90;99.90
27567;DHT22;15006;48.584;9.186;2023-07-30T08:51:42;18.10;99.90
27567;DHT22;15006;48.584;9.186;2023-07-30T08:54:12;18.30;99.90
27567;DHT22;15006;48.584;9.186;2023-07-30T08:56:38;18.30;99.90
27567;DHT22;15006;48.584;9.186;2023-07-30T08:59:05;18.40;99.90
27567;DHT22;15006;48.584;9.186;2023-07-30T09:01:36;18.40;99.90
27567;DHT22;15006;48.584;9.186;2023-07-30T09:04:03;18.50;99.90
27567;DHT22;15006;48.584;9.186;2023-07-30T09:06:30;18.50;99.90
27567;DHT22;15006;48.584;9.186;2023-07-30T09:08:56;18.60;99.90
27567;DHT22;15006;48.584;9.186;2023-07-30T09:11:25;18.70;99.90
27567;DHT22;15006;48.584;9.186;2023-07-30T09:13:53;18.80;99.90
27567;DHT22;15006;48.584;9.186;2023-07-30T09:16:25;18.80;99.90
27567;DHT22;15006;48.584;9.186;2023-07-30T09:18:52;18.90;99.90
27567;DHT22;15006;48.584;9.186;2023-07-30T09:21:19;18.90;99.90
27567;DHT22;15006;48.584;9.186;2023-07-30T09:23:46;18.90;99.70
27567;DHT22;15006;48.584;9.186;2023-07-30T09:26:13;19.00;99.90
27567;DHT22;15006;48.584;9.186;2023-07-30T09:28:40;19.00;97.50
27567;DHT22;15006;48.584;9.186;2023-07-30T09:31:07;19.00;96.50
27567;DHT22;15006;48.584;9.186;2023-07-30T09:33:39;18.90;95.50
27567;DHT22;15006;48.584;9.186;2023-07-30T09:36:09;18.80;96.50
27567;DHT22;15006;48.584;9.186;2023-07-30T09:38:42;18.70;95.20
27567;DHT22;15006;48.584;9.186;2023-07-30T09:41:08;18.60;95.10
27567;DHT22;15006;48.584;9.186;2023-07-30T09:43:38;18.40;96.10
27567;DHT22;15006;48.584;9.186;2023-07-30T09:46:06;18.30;94.80
27567;DHT22;15006;48.584;9.186;2023-07-30T09:48:34;18.00;94.50
27567;DHT22;15006;48.584;9.186;2023-07-30T09:51:01;17.70;94.40
27567;DHT22;15006;48.584;9.186;2023-07-30T09:53:32;17.40;94.90
27567;DHT22;15006;48.584;9.186;2023-07-30T09:56:03;17.10;94.50
27567;DHT22;15006;48.584;9.186;2023-07-30T09:58:31;16.70;95.50
27567;DHT22;15006;48.584;9.186;2023-07-30T10:01:01;16.50;96.80
27567;DHT22;15006;48.584;9.186;2023-07-30T10:03:30;16.30;97.60
27567;DHT22;15006;48.584;9.186;2023-07-30T10:06:02;16.10;99.30
27567;DHT22;15006;48.584;9.186;2023-07-30T10:08:34;16.10;99.20
27567;DHT22;15006;48.584;9.186;2023-07-30T10:11:03;16.10;99.90
27567;DHT22;15006;48.584;9.186;2023-07-30T10:13:31;16.10;99.90
27567;DHT22;15006;48.584;9.186;2023-07-30T10:15:57;16.10;99.90
27567;DHT22;15006;48.584;9.186;2023-07-30T10:18:43;16.20;99.90
27567;DHT22;15006;48.584;9.186;2023-07-30T10:21:10;16.30;99.90
27567;DHT22;15006;48.584;9.186;2023-07-30T10:24:04;16.50;99.90
27567;DHT22;15006;48.584;9.186;2023-07-30T10:26:32;16.70;99.90
27567;DHT22;15006;48.584;9.186;2023-07-30T10:29:29;16.90;99.90
27567;DHT22;15006;48.584;9.186;2023-07-30T10:31:56;17.20;99.90
27567;DHT22;15006;48.584;9.186;2023-07-30T10:34:27;17.50;99.90
27567;DHT22;15006;48.584;9.186;2023-07-30T10:37:09;17.80;99.90
27567;DHT22;15006;48.584;9.186;2023-07-30T10:39:35;18.00;99.90
27567;DHT22;15006;48.584;9.186;2023-07-30T10:42:01;18.10;98.20
27567;DHT22;15006;48.584;9.186;2023-07-30T10:44:31;18.20;96.20
27567;DHT22;15006;48.584;9.186;2023-07-30T10:47:00;18.20;95.70
27567;DHT22;15006;48.584;9.186;2023-07-30T10:49:27;18.20;95.70
27567;DHT22;15006;48.584;9.186;2023-07-30T10:51:55;18.20;95.50
27567;DHT22;15006;48.584;9.186;2023-07-30T10:54:23;18.20;96.60
27567;DHT22;15006;48.584;9.186;2023-07-30T10:56:50;18.30;97.30
27567;DHT22;15006;48.584;9.186;2023-07-30T10:59:17;18.50;98.80
27567;DHT22;15006;48.584;9.186;2023-07-30T11:01:45;18.70;98.70
27567;DHT22;15006;48.584;9.186;2023-07-30T11:04:17;19.00;98.10
27567;DHT22;15006;48.584;9.186;2023-07-30T11:06:48;19.30;96.50
27567;DHT22;15006;48.584;9.186;2023-07-30T11:09:22;19.50;98.70
27567;DHT22;15006;48.584;9.186;2023-07-30T11:11:54;19.80;96.00
27567;DHT22;15006;48.584;9.186;2023-07-30T11:14:25;20.00;96.20
27567;DHT22;15006;48.584;9.186;2023-07-30T11:16:55;20.30;93.80
27567;DHT22;15006;48.584;9.186;2023-07-30T11:19:26;20.50;93.60
27567;DHT22;15006;48.584;9.186;2023-07-30T11:21:54;20.70;92.20
27567;DHT22;15006;48.584;9.186;2023-07-30T11:24:22;20.90;92.40
27567;DHT22;15006;48.584;9.186;2023-07-30T11:27:00;21.10;91.20
27567;DHT22;15006;48.584;9.186;2023-07-30T11:29:27;21.10;82.60
27567;DHT22;15006;48.584;9.186;2023-07-30T11:31:57;21.20;88.30
27567;DHT22;15006;48.584;9.186;2023-07-30T11:34:28;21.30;84.40
27567;DHT22;15006;48.584;9.186;2023-07-30T11:36:55;21.40;83.20
27567;DHT22;15006;48.584;9.186;2023-07-30T11:39:23;21.50;84.20
27567;DHT22;15006;48.584;9.186;2023-07-30T11:41:49;21.60;84.20
27567;DHT22;15006;48.584;9.186;2023-07-30T11:46:57;21.80;78.80
27567;DHT22;15006;48.584;9.186;2023-07-30T11:49:23;22.00;81.60
27567;DHT22;15006;48.584;9.186;2023-07-30T11:51:50;22.10;74.10
27567;DHT22;15006;48.584;9.186;2023-07-30T11:54:21;22.30;74.10
27567;DHT22;15006;48.584;9.186;2023-07-30T11:56:54;22.30;70.80
27567;DHT22;15006;48.584;9.186;2023-07-30T11:59:22;22.40;70.90
27567;DHT22;15006;48.584;9.186;2023-07-30T12:01:48;22.40;71.10
27567;DHT22;15006;48.584;9.186;2023-07-30T12:04:14;22.40;69.60
27567;DHT22;15006;48.584;9.186;2023-07-30T12:09:22;22.40;73.00
27567;DHT22;15006;48.584;9.186;2023-07-30T12:11:59;22.50;70.80
27567;DHT22;15006;48.584;9.186;2023-07-30T12:14:52;22.60;72.60
27567;DHT22;15006;48.584;9.186;2023-07-30T12:17:20;22.70;64.50
27567;DHT22;15006;48.584;9.186;2023-07-30T12:19:47;22.90;74.60
27567;DHT22;15006;48.584;9.186;2023-07-30T12:22:13;23.00;77.30
27567;DHT22;15006;48.584;9.186;2023-07-30T12:24:40;23.20;74.70
27567;DHT22;15006;48.584;9.186;2023-07-30T12:27:07;23.30;71.50
27567;DHT22;15006;48.584;9.186;2023-07-30T12:29:32;23.40;68.60
27567;DHT22;15006;48.584;9.186;2023-07-30T12:31:58;23.50;65.40
27567;DHT22;15006;48.584;9.186;2023-07-30T12:34:25;23.60;65.50
27567;DHT22;15006;48.584;9.186;2023-07-30T12:36:51;23.60;64.60
27567;DHT22;15006;48.584;9.186;2023-07-30T12:39:17;23.60;62.20
27567;DHT22;15006;48.584;9.186;2023-07-30T12:41:43;23.50;63.00
27567;DHT22;15006;48.584;9.186;2023-07-30T12:44:09;23.40;60.60
27567;DHT22;15006;48.584;9.186;2023-07-30T12:46:35;23.30;59.80
27567;DHT22;15006;48.584;9.186;2023-07-30T12:49:01;23.20;59.90
27567;DHT22;15006;48.584;9.186;2023-07-30T12:51:30;23.10;60.70
27567;DHT22;15006;48.584;9.186;2023-07-30T12:53:57;22.90;62.90
27567;DHT22;15006;48.584;9.186;2023-07-30T12:56:23;22.80;60.40
27567;DHT22;15006;48.584;9.186;2023-07-30T12:58:49;22.60;62.10
27567;DHT22;15006;48.584;9.186;2023-07-30T13:01:15;22.40;61.00
27567;DHT22;15006;48.584;9.186;2023-07-30T13:03:41;22.20;63.10
27567;DHT22;15006;48.584;9.186;2023-07-30T13:06:13;22.10;63.50
27567;DHT22;15006;48.584;9.186;2023-07-30T13:08:39;21.90;65.90
27567;DHT22;15006;48.584;9.186;2023-07-30T13:11:06;21.70;65.10
27567;DHT22;15006;48.584;9.186;2023-07-30T13:13:32;21.60;67.30
27567;DHT22;15006;48.584;9.186;2023-07-30T13:15:58;21.60;72.20
27567;DHT22;15006;48.584;9.186;2023-07-30T13:18:28;21.70;73.10
27567;DHT22;15006;48.584;9.186;2023-07-30T13:20:55;21.90;74.50
27567;DHT22;15006;48.584;9.186;2023-07-30T13:23:21;22.30;79.20
27567;DHT22;15006;48.584;9.186;2023-07-30T13:25:47;22.60;75.80
27567;DHT22;15006;48.584;9.186;2023-07-30T13:28:13;22.90;71.70
27567;DHT22;15006;48.584;9.186;2023-07-30T13:30:39;23.10;69.40
27567;DHT22;15006;48.584;9.186;2023-07-30T13:33:05;23.30;65.70
27567;DHT22;15006;48.584;9.186;2023-07-30T13:35:31;23.30;65.60
27567;DHT22;15006;48.584;9.186;2023-07-30T13:37:58;23.30;64.60
27567;DHT22;15006;48.584;9.186;2023-07-30T13:40:24;23.20;65.10
27567;DHT22;15006;48.584;9.186;2023-07-30T13:42:50;23.10;63.70
27567;DHT22;15006;48.584;9.186;2023-07-30T13:45:16;22.90;62.10
27567;DHT22;15006;48.584;9.186;2023-07-30T13:47:42;22.70;63.40
27567;DHT22;15006;48.584;9.186;2023-07-30T13:50:08;22.50;65.60
27567;DHT22;15006;48.584;9.186;2023-07-30T13:52:34;22.50;66.10
27567;DHT22;15006;48.584;9.186;2023-07-30T13:55:01;22.50;68.80
27567;DHT22;15006;48.584;9.186;2023-07-30T13:57:28;22.50;67.20
27567;DHT22;15006;48.584;9.186;2023-07-30T13:59:54;22.50;65.60
27567;DHT22;15006;48.584;9.186;2023-07-30T14:02:20;22.50;64.30
27567;DHT22;15006;48.584;9.186;2023-07-30T14:04:46;22.40;63.30
27567;DHT22;15006;48.584;9.186;2023-07-30T14:07:12;22.30;65.40
27567;DHT22;15006;48.584;9.186;2023-07-30T14:09:38;22.20;65.30
27567;DHT22;15006;48.584;9.186;2023-07-30T14:12:04;22.10;66.20
27567;DHT22;15006;48.584;9.186;2023-07-30T14:14:31;22.10;70.30
27567;DHT22;15006;48.584;9.186;2023-07-30T14:16:57;22.30;73.40
27567;DHT22;15006;48.584;9.186;2023-07-30T14:19:23;22.60;72.50
27567;DHT22;15006;48.584;9.186;2023-07-30T14:21:49;23.00;70.90
27567;DHT22;15006;48.584;9.186;2023-07-30T14:24:15;23.30;69.00
27567;DHT22;15006;48.584;9.186;2023-07-30T14:26:41;23.40;64.10
27567;DHT22;15006;48.584;9.186;2023-07-30T14:29:07;23.40;61.60
27567;DHT22;15006;48.584;9.186;2023-07-30T14:31:33;23.40;62.40
27567;DHT22;15006;48.584;9.186;2023-07-30T14:34:03;23.50;63.10
27567;DHT22;15006;48.584;9.186;2023-07-30T14:36:29;23.50;61.80
27567;DHT22;15006;48.584;9.186;2023-07-30T14:38:55;23.60;63.70
27567;DHT22;15006;48.584;9.186;2023-07-30T14:41:21;23.70;63.70
27567;DHT22;15006;48.584;9.186;2023-07-30T14:43:47;23.70;61.30
27567;DHT22;15006;48.584;9.186;2023-07-30T14:46:13;23.60;60.00
27567;DHT22;15006;48.584;9.186;2023-07-30T14:48:41;23.50;58.80
27567;DHT22;15006;48.584;9.186;2023-07-30T14:51:07;23.30;58.70
27567;DHT22;15006;48.584;9.186;2023-07-30T14:53:33;23.00;58.20
27567;DHT22;15006;48.584;9.186;2023-07-30T14:56:00;22.70;58.50
27567;DHT22;15006;48.584;9.186;2023-07-30T14:58:30;22.50;59.50
27567;DHT22;15006;48.584;9.186;2023-07-30T15:00:56;22.40;61.30
27567;DHT22;15006;48.584;9.186;2023-07-30T15:03:22;22.20;60.80
27567;DHT22;15006;48.584;9.186;2023-07-30T15:05:48;22.10;60.50
27567;DHT22;15006;48.584;9.186;2023-07-30T15:08:14;21.90;61.20
27567;DHT22;15006;48.584;9.186;2023-07-30T15:10:40;21.70;62.30
27567;DHT22;15006;48.584;9.186;2023-07-30T15:13:06;21.70;62.80
27567;DHT22;15006;48.584;9.186;2023-07-30T15:15:32;21.60;64.10
27567;DHT22;15006;48.584;9.186;2023-07-30T15:17:58;21.70;65.40
27567;DHT22;15006;48.584;9.186;2023-07-30T15:20:24;21.80;65.10
27567;DHT22;15006;48.584;9.186;2023-07-30T15:22:50;21.90;64.40
27567;DHT22;15006;48.584;9.186;2023-07-30T15:25:17;22.10;62.00
27567;DHT22;15006;48.584;9.186;2023-07-30T15:27:43;22.20;62.80
27567;DHT22;15006;48.584;9.186;2023-07-30T15:30:09;22.40;62.30
27567;DHT22;15006;48.584;9.186;2023-07-30T15:32:42;22.60;60.90
27567;DHT22;15006;48.584;9.186;2023-07-30T15:35:10;22.70;60.30